»·PEaware :: N181DJ KAJO-KVCV

N181DJ :: KAJO-KVCV

FLIGHT INFORMATION

Flight Status: Arrived
Operator: Privately registered:
United States
More flights under this callsign
Pilot: Brian H. (29287)
Aircraft: PIPER PA-28 CHEROKEE ARCHER
(PA28)
More flights by this aircraft type
Origin: KAJO Corona Mun
United States
Destination: KVCV Socal Logistics
United States
More flights between these airports :: More routes between these airports
Route: PDZ V442 APLES
File this flight plan on PilotEdge
Remarks:
Altitude:
(Current/Filed)
9,000ft
Speed:
(Current/Filed)
120kts
Departed: 21-Nov-20 10:27 AM
Arrived: 21-Nov-20 11:52 AM
Distance/Time
Traveled:
43nm/1:25
Distance/Time
To Go:
Arrived

Flight Plot

Page will automatically refresh every two minutes.


Map Options




Map Legend


Flown Route
Filed Route
Departure Airport
Arrival Airport
Navaid (VOR, NDB)
Fix

Horizontal Profiles

Position Reports

Time Latitude Longitude Heading Altitude Ground
Speed
21-Nov-20 10:12 33.896392 -117.596526 268 538ft 0kts
21-Nov-20 10:13 33.896392 -117.596526 268 538ft 0kts
21-Nov-20 10:14 33.896392 -117.596526 268 538ft 0kts
21-Nov-20 10:15 33.896392 -117.596526 268 538ft 0kts
21-Nov-20 10:16 33.896392 -117.596526 268 538ft 0kts
21-Nov-20 10:17 33.896392 -117.596526 268 538ft 0kts
21-Nov-20 10:19 33.896392 -117.596526 268 538ft 0kts
21-Nov-20 10:20 33.896392 -117.596526 268 538ft 0kts
21-Nov-20 10:21 33.896392 -117.596526 268 538ft 0kts
21-Nov-20 10:22 33.896393 -117.596582 278 538ft 0kts
21-Nov-20 10:23 33.897356 -117.597287 309 538ft 0kts
21-Nov-20 10:24 33.897356 -117.597287 309 538ft 0kts
21-Nov-20 10:25 33.897356 -117.597287 309 538ft 0kts
21-Nov-20 10:26 33.897366 -117.597301 310 538ft 0kts
21-Nov-20 10:27 33.897700 -117.609408 271 706ft 70kts
21-Nov-20 10:28 33.903754 -117.625688 53 1122ft 78kts
21-Nov-20 10:29 33.908660 -117.603340 86 1672ft 69kts
21-Nov-20 10:30 33.908693 -117.577096 87 1886ft 96kts
21-Nov-20 10:31 33.912424 -117.542552 79 1878ft 107kts
21-Nov-20 10:32 33.927516 -117.519381 16 2232ft 83kts
21-Nov-20 10:32 33.947083 -117.513512 17 2473ft 87kts
21-Nov-20 10:39 33.896394 -117.596577 279 538ft 1kts
21-Nov-20 10:41 33.897177 -117.596959 290 538ft 0kts
21-Nov-20 10:41 33.897204 -117.597043 290 538ft 3kts
21-Nov-20 10:42 33.897623 -117.609453 272 646ft 88kts
21-Nov-20 10:43 33.898480 -117.639700 314 1355ft 91kts
21-Nov-20 10:44 33.917729 -117.630443 79 1881ft 110kts
21-Nov-20 10:45 33.920619 -117.589680 84 2096ft 122kts
21-Nov-20 10:46 33.923007 -117.550382 84 2619ft 111kts
21-Nov-20 10:47 33.924989 -117.514119 82 3198ft 105kts
21-Nov-20 10:48 33.944903 -117.513248 309 3781ft 94kts
21-Nov-20 10:49 33.936373 -117.534094 185 4361ft 97kts
21-Nov-20 10:50 33.911657 -117.535579 241 4942ft 84kts
21-Nov-20 10:51 33.929012 -117.546735 18 4974ft 119kts
21-Nov-20 10:52 33.957299 -117.521827 35 4968ft 129kts
21-Nov-20 10:53 33.949047 -117.492801 195 4969ft 133kts
21-Nov-20 10:54 33.922397 -117.522197 234 4968ft 131kts
21-Nov-20 10:55 33.930005 -117.549199 18 4971ft 127kts
21-Nov-20 10:56 33.955076 -117.521891 40 5375ft 106kts
21-Nov-20 10:57 33.957925 -117.494315 161 5844ft 106kts
21-Nov-20 10:58 33.935416 -117.510387 229 6260ft 98kts
21-Nov-20 10:59 33.917737 -117.533699 254 6719ft 89kts
21-Nov-20 11:00 33.934714 -117.541224 32 7080ft 98kts
21-Nov-20 11:01 33.951048 -117.513622 50 7454ft 103kts
21-Nov-20 11:02 33.973845 -117.495089 19 7867ft 100kts
21-Nov-20 11:03 33.999013 -117.480464 19 8277ft 100kts
21-Nov-20 11:04 34.024241 -117.465601 19 8665ft 100kts
21-Nov-20 11:05 34.049574 -117.450511 19 8997ft 105kts
21-Nov-20 11:06 34.079332 -117.433000 20 8990ft 127kts
21-Nov-20 11:07 34.111949 -117.413889 20 8990ft 131kts
21-Nov-20 11:08 34.145241 -117.394457 20 8992ft 132kts
21-Nov-20 11:09 34.178376 -117.374545 21 8993ft 133kts
21-Nov-20 11:10 34.211468 -117.354384 21 8994ft 133kts
21-Nov-20 11:11 34.244640 -117.334165 21 8992ft 132kts
21-Nov-20 11:12 34.277440 -117.314152 21 9010ft 131kts
21-Nov-20 11:13 34.310213 -117.294161 21 9025ft 131kts
21-Nov-20 11:14 34.343178 -117.274095 21 8959ft 137kts
21-Nov-20 11:15 34.376940 -117.253691 21 8942ft 133kts
21-Nov-20 11:16 34.409995 -117.233634 21 8946ft 132kts
21-Nov-20 11:17 34.442896 -117.213663 21 8951ft 132kts
21-Nov-20 11:18 34.475848 -117.193654 21 8959ft 132kts
21-Nov-20 11:19 34.508715 -117.173700 21 8971ft 131kts
21-Nov-20 11:20 34.541334 -117.153883 21 8985ft 126kts
21-Nov-20 11:21 34.573421 -117.141496 11 9008ft 118kts
21-Nov-20 11:22 34.604547 -117.146735 345 8875ft 123kts
21-Nov-20 11:23 34.640709 -117.153000 349 8284ft 132kts
21-Nov-20 11:24 34.676696 -117.161360 333 7718ft 130kts
21-Nov-20 11:25 34.707477 -117.184469 321 7161ft 129kts
21-Nov-20 11:26 34.733198 -117.215288 316 6616ft 129kts
21-Nov-20 11:27 34.756618 -117.242634 316 6635ft 109kts
21-Nov-20 11:28 34.773583 -117.272185 300 6636ft 105kts
21-Nov-20 11:29 34.782649 -117.307856 285 6483ft 119kts
21-Nov-20 11:30 34.790446 -117.348113 285 6205ft 121kts
21-Nov-20 11:31 34.772431 -117.372628 177 5848ft 125kts
21-Nov-20 11:32 34.739079 -117.375440 185 5372ft 113kts
21-Nov-20 11:33 34.706451 -117.378981 191 4563ft 121kts
21-Nov-20 11:34 34.673488 -117.382683 185 3867ft 113kts
21-Nov-20 11:35 34.645690 -117.385506 185 3351ft 95kts
21-Nov-20 11:36 34.621453 -117.387626 184 3181ft 89kts
21-Nov-20 11:37 34.595851 -117.393157 246 3690ft 96kts
21-Nov-20 11:38 34.599305 -117.421906 276 4352ft 90kts
21-Nov-20 11:39 34.602721 -117.450368 282 5024ft 83kts
21-Nov-20 11:40 34.607604 -117.477572 286 5632ft 81kts
21-Nov-20 11:41 34.613367 -117.505298 287 6002ft 98kts
21-Nov-20 11:42 34.621079 -117.540994 286 5994ft 114kts
21-Nov-20 11:43 34.627113 -117.579229 252 5991ft 119kts
21-Nov-20 11:44 34.602534 -117.571178 106 5994ft 125kts
21-Nov-20 11:45 34.594498 -117.529525 99 5992ft 126kts
21-Nov-20 11:46 34.594955 -117.488034 83 5580ft 128kts
21-Nov-20 11:47 34.599016 -117.442177 86 4415ft 126kts
21-Nov-20 11:48 34.599469 -117.400210 87 3699ft 112kts
21-Nov-20 11:49 34.614961 -117.371184 53 3545ft 96kts
21-Nov-20 11:50 34.607494 -117.357093 233 3193ft 74kts
21-Nov-20 11:51 34.596576 -117.371203 225 2855ft 30kts
21-Nov-20 11:52 34.594144 -117.372723 180 2860ft 0kts
21-Nov-20 11:53 34.591522 -117.374263 220 2866ft 10kts
21-Nov-20 11:54 34.588164 -117.375612 128 2871ft 14kts
21-Nov-20 11:55 34.587775 -117.375796 312 2872ft 0kts
21-Nov-20 11:56 34.587775 -117.375796 312 2872ft 0kts
21-Nov-20 11:57 34.587775 -117.375796 312 2872ft 0kts
21-Nov-20 11:58 34.587775 -117.375796 312 2872ft 0kts
21-Nov-20 11:59 34.587775 -117.375796 312 2872ft 0kts
21-Nov-20 12:00 34.587775 -117.375796 312 2872ft 0kts
21-Nov-20 12:01 34.587775 -117.375796 312 2872ft 0kts

Navigation Log

Ident Type
Flight plan parsing failed, navigation log unavailable